createdAt,value
2023-05-18T00:00:43.908Z,45.32
2023-05-18T00:01:33.972Z,39.04
2023-05-18T00:02:24.171Z,43.06
2023-05-18T00:03:14.133Z,41.73
2023-05-18T00:04:04.174Z,45.05
2023-05-18T00:04:54.278Z,42.91
2023-05-18T00:05:44.272Z,37.04
2023-05-18T00:06:34.319Z,43.88
2023-05-18T00:07:24.393Z,41.74
2023-05-18T00:08:14.468Z,43.68
2023-05-18T00:09:04.485Z,41.55
2023-05-18T00:09:54.583Z,43.10
2023-05-18T00:10:44.616Z,43.06
2023-05-18T00:11:34.684Z,43.39
2023-05-18T00:12:24.769Z,42.28
2023-05-18T00:13:14.827Z,40.87
2023-05-18T00:14:04.850Z,41.48
2023-05-18T00:14:54.920Z,44.43
2023-05-18T00:15:44.978Z,41.06
2023-05-18T00:16:35.070Z,41.70
2023-05-18T00:17:25.134Z,39.31
2023-05-18T00:18:15.175Z,42.13
2023-05-18T00:19:05.314Z,41.64
2023-05-18T00:19:55.270Z,39.86
2023-05-18T00:20:45.335Z,39.85
2023-05-18T00:21:35.395Z,42.55
2023-05-18T00:22:25.450Z,37.55
2023-05-18T00:23:15.527Z,38.41
2023-05-18T00:24:05.553Z,40.71
2023-05-18T00:24:55.598Z,42.26
2023-05-18T00:25:45.655Z,37.91
2023-05-18T00:26:35.749Z,38.75
2023-05-18T00:27:25.779Z,42.06
2023-05-18T00:28:15.873Z,38.77
2023-05-18T00:29:05.912Z,39.49
2023-05-18T00:29:55.997Z,40.42
2023-05-18T00:30:46.010Z,39.35
2023-05-18T00:31:36.120Z,34.00
2023-05-18T00:32:26.171Z,40.65
2023-05-18T00:33:16.184Z,41.13
2023-05-18T00:34:06.200Z,36.62
2023-05-18T00:34:56.264Z,38.71
2023-05-18T00:35:46.325Z,38.80
2023-05-18T00:36:36.386Z,40.93
2023-05-18T00:37:26.449Z,39.44
2023-05-18T00:38:16.546Z,41.68
2023-05-18T00:39:06.547Z,34.81
2023-05-18T00:39:56.620Z,40.27
2023-05-18T00:40:46.681Z,38.51
2023-05-18T00:41:36.746Z,37.69
2023-05-18T00:42:26.827Z,39.21
2023-05-18T00:43:16.869Z,40.23
2023-05-18T00:44:06.912Z,40.74
2023-05-18T00:44:56.952Z,34.89
2023-05-18T00:45:47.068Z,40.10
2023-05-18T00:46:37.301Z,36.21
2023-05-18T00:47:27.130Z,35.70
2023-05-18T00:48:17.225Z,35.01
2023-05-18T00:49:07.261Z,35.99
2023-05-18T00:49:57.315Z,39.42
2023-05-18T00:50:47.372Z,37.06
2023-05-18T00:51:37.439Z,35.37
2023-05-18T00:52:27.508Z,33.69
2023-05-18T00:53:18.583Z,34.26
2023-05-18T00:54:07.606Z,33.48
2023-05-18T00:54:57.666Z,33.06
2023-05-18T00:55:47.724Z,34.05
2023-05-18T00:56:37.783Z,37.28
2023-05-18T00:57:27.845Z,32.13
2023-05-18T00:58:17.912Z,34.49
2023-05-18T00:59:07.979Z,33.58
2023-05-18T00:59:58.097Z,32.41
2023-05-18T01:00:48.140Z,32.87
2023-05-18T01:01:38.201Z,34.03
2023-05-18T01:02:28.281Z,30.01
2023-05-18T01:03:18.302Z,32.07
2023-05-18T01:04:08.345Z,36.91
2023-05-18T01:04:58.423Z,31.76
2023-05-18T01:05:48.466Z,32.55
2023-05-18T01:06:38.538Z,30.87
2023-05-18T01:07:28.598Z,33.22
2023-05-18T01:08:18.670Z,31.80
2023-05-18T01:09:08.751Z,29.76
2023-05-18T01:09:58.789Z,29.73
2023-05-18T01:10:48.860Z,32.20
2023-05-18T01:11:38.989Z,32.58
2023-05-18T01:12:28.974Z,27.78
2023-05-18T01:13:19.048Z,31.83
2023-05-18T01:14:09.111Z,33.42
2023-05-18T01:14:59.172Z,25.00
2023-05-18T01:15:49.249Z,30.51
2023-05-18T01:16:39.377Z,30.19
2023-05-18T01:17:29.373Z,29.00
2023-05-18T01:18:19.415Z,30.82
2023-05-18T01:19:09.527Z,31.98
2023-05-18T01:19:59.532Z,29.55
2023-05-18T01:20:49.590Z,31.30
2023-05-18T01:21:39.650Z,32.89
2023-05-18T01:22:29.740Z,31.83
2023-05-18T01:23:19.779Z,27.82
2023-05-18T01:24:09.861Z,30.35
2023-05-18T01:24:59.876Z,29.63
2023-05-18T01:25:49.937Z,29.21
2023-05-18T01:26:40.003Z,28.84
2023-05-18T01:27:30.057Z,30.83
2023-05-18T01:28:20.117Z,28.56
2023-05-18T01:29:10.219Z,27.29
2023-05-18T01:30:00.218Z,32.31
2023-05-18T01:30:50.339Z,33.15
2023-05-18T01:31:40.458Z,30.66
2023-05-18T01:32:30.406Z,31.23
2023-05-18T01:33:20.460Z,31.11
2023-05-18T01:34:10.533Z,31.18
2023-05-18T01:35:00.602Z,31.48
2023-05-18T01:35:50.667Z,32.08
2023-05-18T01:36:40.708Z,34.85
2023-05-18T01:37:30.762Z,29.95
2023-05-18T01:38:20.828Z,30.99
2023-05-18T01:39:10.901Z,29.92
2023-05-18T01:40:00.925Z,30.58
2023-05-18T01:40:50.983Z,30.32
2023-05-18T01:41:41.047Z,31.98
2023-05-18T01:42:31.106Z,30.63
2023-05-18T01:43:21.172Z,33.58
2023-05-18T01:44:11.272Z,33.10
2023-05-18T01:45:01.281Z,37.15
2023-05-18T01:45:51.339Z,33.98
2023-05-18T01:46:41.489Z,32.07
2023-05-18T01:47:31.577Z,33.62
2023-05-18T01:48:21.544Z,30.20
2023-05-18T01:49:11.628Z,33.21
2023-05-18T01:50:01.664Z,30.41
2023-05-18T01:50:51.697Z,33.55
2023-05-18T01:51:41.784Z,25.67
2023-05-18T01:52:31.830Z,26.43
2023-05-18T01:53:21.885Z,30.62
2023-05-18T01:54:11.959Z,35.98
2023-05-18T01:55:02.033Z,37.19
2023-05-18T01:55:52.082Z,35.11
2023-05-18T01:56:42.151Z,33.67
2023-05-18T01:57:32.205Z,35.47
2023-05-18T01:58:22.270Z,37.29
2023-05-18T01:59:12.358Z,35.68
2023-05-18T02:00:02.415Z,28.57
2023-05-18T02:00:52.472Z,30.26
2023-05-18T02:01:42.594Z,35.64
2023-05-18T02:02:32.645Z,34.79
2023-05-18T02:03:22.804Z,32.76
2023-05-18T02:04:12.780Z,30.63
2023-05-18T02:05:02.734Z,30.17
2023-05-18T02:05:52.805Z,34.80
2023-05-18T02:06:42.859Z,36.06
2023-05-18T02:07:32.914Z,35.44
2023-05-18T02:08:22.973Z,32.29
2023-05-18T02:09:13.055Z,29.76
2023-05-18T02:10:03.089Z,30.49
2023-05-18T02:10:53.144Z,33.06
2023-05-18T02:11:43.201Z,32.10
2023-05-18T02:12:33.266Z,32.18
2023-05-18T02:13:23.323Z,32.60
2023-05-18T02:14:14.794Z,33.92
2023-05-18T02:15:03.698Z,33.99
2023-05-18T02:15:54.402Z,32.71
2023-05-18T02:16:43.947Z,34.21
2023-05-18T02:17:33.878Z,31.93
2023-05-18T02:18:23.924Z,29.62
2023-05-18T02:19:14.086Z,31.07
2023-05-18T02:20:04.028Z,28.78
2023-05-18T02:20:54.085Z,32.27
2023-05-18T02:21:44.140Z,34.16
2023-05-18T02:22:34.208Z,28.43
2023-05-18T02:23:24.265Z,31.49
2023-05-18T02:24:14.345Z,27.62
2023-05-18T02:25:04.403Z,29.71
2023-05-18T02:25:54.475Z,33.30
2023-05-18T02:26:44.542Z,31.49
2023-05-18T02:27:34.599Z,35.83
2023-05-18T02:28:24.657Z,31.90
2023-05-18T02:29:14.853Z,31.44
2023-05-18T02:30:04.787Z,36.40
2023-05-18T02:30:54.839Z,32.55
2023-05-18T02:31:44.939Z,32.52
2023-05-18T02:32:35.001Z,35.30
2023-05-18T02:33:25.037Z,32.12
2023-05-18T02:34:15.106Z,33.33
2023-05-18T02:35:05.322Z,33.95
2023-05-18T02:35:55.200Z,34.12
2023-05-18T02:36:45.273Z,34.28
2023-05-18T02:37:35.336Z,32.15
2023-05-18T02:38:25.392Z,32.85
2023-05-18T02:39:15.469Z,32.50
2023-05-18T02:40:05.495Z,32.81
2023-05-18T02:40:55.563Z,33.37
2023-05-18T02:41:45.616Z,31.96
2023-05-18T02:42:35.685Z,34.22
2023-05-18T02:43:25.757Z,34.65
2023-05-18T02:44:15.814Z,36.00
2023-05-18T02:45:05.881Z,39.50
2023-05-18T02:45:55.953Z,34.39
2023-05-18T02:46:46.013Z,37.79
2023-05-18T02:47:36.099Z,33.24
2023-05-18T02:48:26.105Z,32.04
2023-05-18T02:49:16.189Z,35.17
2023-05-18T02:50:06.237Z,35.79
2023-05-18T02:50:56.331Z,36.86
2023-05-18T02:51:46.371Z,33.76
2023-05-18T02:52:36.446Z,32.33
2023-05-18T02:53:26.484Z,34.71
2023-05-18T02:54:16.548Z,29.68
2023-05-18T02:55:06.579Z,30.37
2023-05-18T02:55:56.629Z,31.57
2023-05-18T02:56:46.694Z,32.21
2023-05-18T02:57:36.751Z,34.82
2023-05-18T02:58:26.822Z,34.79
2023-05-18T02:59:16.891Z,36.11
2023-05-18T03:00:06.965Z,34.43
2023-05-18T03:00:57.082Z,34.01
2023-05-18T03:01:47.189Z,33.50
2023-05-18T03:02:37.197Z,26.62
2023-05-18T03:03:27.212Z,31.85
2023-05-18T03:04:17.278Z,30.45
2023-05-18T03:05:07.350Z,29.05
2023-05-18T03:05:57.409Z,31.98
2023-05-18T03:06:47.581Z,33.05
2023-05-18T03:07:37.556Z,33.04
2023-05-18T03:08:27.606Z,32.35
2023-05-18T03:09:17.685Z,31.38
2023-05-18T03:10:07.817Z,31.02
2023-05-18T03:10:57.744Z,29.26
2023-05-18T03:11:47.807Z,26.03
2023-05-18T03:12:39.355Z,29.61
2023-05-18T03:13:27.968Z,29.68
2023-05-18T03:14:18.004Z,29.89
2023-05-18T03:15:08.068Z,29.99
2023-05-18T03:15:58.116Z,29.89
2023-05-18T03:16:48.224Z,30.22
2023-05-18T03:17:38.284Z,30.32
2023-05-18T03:18:28.298Z,31.68
2023-05-18T03:19:18.435Z,30.58
2023-05-18T03:20:08.400Z,29.20
2023-05-18T03:20:58.477Z,31.27
2023-05-18T03:21:48.491Z,27.88
2023-05-18T03:22:38.581Z,31.15
2023-05-18T03:23:28.619Z,31.05
2023-05-18T03:24:18.690Z,32.32
2023-05-18T03:25:08.708Z,31.48
2023-05-18T03:25:58.782Z,33.84
2023-05-18T03:26:48.830Z,37.10
2023-05-18T03:27:39.855Z,30.81
2023-05-18T03:28:28.925Z,30.84
2023-05-18T03:29:19.004Z,34.60
2023-05-18T03:30:09.028Z,33.55
2023-05-18T03:30:59.172Z,35.51
2023-05-18T03:31:49.270Z,36.58
2023-05-18T03:32:39.317Z,36.99
2023-05-18T03:33:29.301Z,32.13
2023-05-18T03:34:19.395Z,32.93
2023-05-18T03:35:09.452Z,34.17
2023-05-18T03:35:59.500Z,33.80
2023-05-18T03:36:49.566Z,34.21
2023-05-18T03:37:39.641Z,35.36
2023-05-18T03:38:29.766Z,33.18
2023-05-18T03:39:19.743Z,34.97
2023-05-18T03:40:09.766Z,30.70
2023-05-18T03:40:59.825Z,30.86
2023-05-18T03:41:49.891Z,30.80
2023-05-18T03:42:39.941Z,32.20
2023-05-18T03:43:30.019Z,34.05
2023-05-18T03:44:20.094Z,33.93
2023-05-18T03:45:10.141Z,34.83
2023-05-18T03:46:00.225Z,30.24
2023-05-18T03:46:50.304Z,34.30
2023-05-18T03:47:40.348Z,32.06
2023-05-18T03:48:30.363Z,32.22
2023-05-18T03:49:20.439Z,33.44
2023-05-18T03:50:10.473Z,33.39
2023-05-18T03:51:00.537Z,27.79
2023-05-18T03:51:50.603Z,27.85
2023-05-18T03:52:40.655Z,32.11
2023-05-18T03:53:30.720Z,31.77
2023-05-18T03:54:20.943Z,34.13
2023-05-18T03:55:10.835Z,29.20
2023-05-18T03:56:00.894Z,32.66
2023-05-18T03:56:50.962Z,31.67
2023-05-18T03:57:41.023Z,26.64
2023-05-18T03:58:31.101Z,33.51
2023-05-18T03:59:21.871Z,34.88
2023-05-18T04:00:11.197Z,33.83
2023-05-18T04:01:01.260Z,35.90
2023-05-18T04:01:51.360Z,31.69
2023-05-18T04:02:41.913Z,29.46
2023-05-18T04:03:31.574Z,29.18
2023-05-18T04:04:21.522Z,32.59
2023-05-18T04:05:11.545Z,34.29
2023-05-18T04:06:01.611Z,33.70
2023-05-18T04:06:51.693Z,31.49
2023-05-18T04:07:41.739Z,31.15
2023-05-18T04:08:31.808Z,32.06
2023-05-18T04:09:21.876Z,30.27
2023-05-18T04:10:11.912Z,25.40
2023-05-18T04:11:01.946Z,31.09
2023-05-18T04:11:52.010Z,31.38
2023-05-18T04:12:42.070Z,27.47
2023-05-18T04:13:32.141Z,32.31
2023-05-18T04:14:22.211Z,29.03
2023-05-18T04:15:12.277Z,34.44
2023-05-18T04:16:02.418Z,29.90
2023-05-18T04:16:52.464Z,32.39
2023-05-18T04:17:42.469Z,35.53
2023-05-18T04:18:32.527Z,30.37
2023-05-18T04:19:22.949Z,31.83
2023-05-18T04:20:12.647Z,31.24
2023-05-18T04:21:02.695Z,31.04
2023-05-18T04:21:52.762Z,32.14
2023-05-18T04:22:42.816Z,28.90
2023-05-18T04:23:32.888Z,28.95
2023-05-18T04:24:22.963Z,32.22
2023-05-18T04:25:13.021Z,32.33
2023-05-18T04:26:03.114Z,31.72
2023-05-18T04:26:53.196Z,29.23
2023-05-18T04:27:43.221Z,30.10
2023-05-18T04:28:33.292Z,31.25
2023-05-18T04:29:23.361Z,33.40
2023-05-18T04:30:13.549Z,31.07
2023-05-18T04:31:03.464Z,27.14
2023-05-18T04:31:53.546Z,27.46
2023-05-18T04:32:43.810Z,30.25
2023-05-18T04:33:33.666Z,28.55
2023-05-18T04:34:23.739Z,29.12
2023-05-18T04:35:13.759Z,27.89
2023-05-18T04:36:03.810Z,30.18
2023-05-18T04:36:53.875Z,32.03
2023-05-18T04:37:43.935Z,28.76
2023-05-18T04:38:33.996Z,26.82
2023-05-18T04:39:24.071Z,25.00
2023-05-18T04:40:14.429Z,31.11
2023-05-18T04:41:04.178Z,31.26
2023-05-18T04:41:54.380Z,34.50
2023-05-18T04:42:44.299Z,35.04
2023-05-18T04:43:34.368Z,32.86
2023-05-18T04:44:24.452Z,32.61
2023-05-18T04:45:14.468Z,34.81
2023-05-18T04:46:04.561Z,33.28
2023-05-18T04:46:54.608Z,36.59
2023-05-18T04:47:44.676Z,34.15
2023-05-18T04:48:34.723Z,35.17
2023-05-18T04:49:24.808Z,35.32
2023-05-18T04:50:14.827Z,35.02
2023-05-18T04:51:04.958Z,31.66
2023-05-18T04:51:54.944Z,34.73
2023-05-18T04:52:45.003Z,37.47
2023-05-18T04:53:35.071Z,32.63
2023-05-18T04:54:25.142Z,36.93
2023-05-18T04:55:15.209Z,33.90
2023-05-18T04:56:05.292Z,36.51
2023-05-18T04:56:55.347Z,33.56
2023-05-18T04:57:45.492Z,37.82
2023-05-18T04:58:35.456Z,33.85
2023-05-18T04:59:25.533Z,33.73
2023-05-18T05:00:15.571Z,36.14
2023-05-18T05:01:05.683Z,33.57
2023-05-18T05:01:55.713Z,35.44
2023-05-18T05:02:45.797Z,36.70
2023-05-18T05:03:35.876Z,30.31
2023-05-18T05:04:25.850Z,33.56
2023-05-18T05:05:15.872Z,38.00
2023-05-18T05:06:05.940Z,34.40
2023-05-18T05:06:55.995Z,35.34
2023-05-18T05:07:46.068Z,38.85
2023-05-18T05:08:36.130Z,42.74
2023-05-18T05:09:26.191Z,38.04
2023-05-18T05:10:16.205Z,33.42
2023-05-18T05:11:06.280Z,37.26
2023-05-18T05:11:56.351Z,38.98
2023-05-18T05:12:48.560Z,39.82
2023-05-18T05:13:36.479Z,35.17
2023-05-18T05:14:26.768Z,39.95
2023-05-18T05:15:16.843Z,40.20
2023-05-18T05:16:06.940Z,41.00
2023-05-18T05:16:56.930Z,40.81
2023-05-18T05:17:47.047Z,41.91
2023-05-18T05:18:37.096Z,40.10
2023-05-18T05:19:27.209Z,49.07
2023-05-18T05:20:17.152Z,42.52
2023-05-18T05:21:07.186Z,45.62
2023-05-18T05:21:57.260Z,44.00
2023-05-18T05:22:47.489Z,44.70
2023-05-18T05:23:37.378Z,47.25
2023-05-18T05:24:27.450Z,47.87
2023-05-18T05:25:17.506Z,47.96
2023-05-18T05:26:07.569Z,48.35
2023-05-18T05:26:57.631Z,43.48
2023-05-18T05:27:47.688Z,41.84
2023-05-18T05:28:37.753Z,46.23
2023-05-18T05:29:27.913Z,47.33
2023-05-18T05:30:17.897Z,47.13
2023-05-18T05:31:08.025Z,47.95
2023-05-18T05:31:58.073Z,43.57
2023-05-18T05:32:48.096Z,50.61
2023-05-18T05:33:38.132Z,48.90
2023-05-18T05:34:28.209Z,47.60
2023-05-18T05:35:18.269Z,51.05
2023-05-18T05:36:08.346Z,48.15
2023-05-18T05:36:58.455Z,50.85
2023-05-18T05:37:48.474Z,53.40
2023-05-18T05:38:38.538Z,51.20
2023-05-18T05:39:28.613Z,49.13
2023-05-18T05:40:18.639Z,47.74
2023-05-18T05:41:08.694Z,42.73
2023-05-18T05:41:58.755Z,43.81
2023-05-18T05:42:48.820Z,45.01
2023-05-18T05:43:38.892Z,44.97
2023-05-18T05:44:28.986Z,46.70
2023-05-18T05:45:19.017Z,42.03
2023-05-18T05:46:09.056Z,44.01
2023-05-18T05:46:59.170Z,39.21
2023-05-18T05:47:49.244Z,43.23
2023-05-18T05:48:39.239Z,40.56
2023-05-18T05:49:29.308Z,42.27
2023-05-18T05:50:19.332Z,41.76
2023-05-18T05:51:09.396Z,40.56
2023-05-18T05:51:59.465Z,41.29
2023-05-18T05:52:49.544Z,40.35
2023-05-18T05:53:39.610Z,41.50
2023-05-18T05:54:29.690Z,43.96
2023-05-18T05:55:19.724Z,45.61
2023-05-18T05:56:09.787Z,42.50
2023-05-18T05:56:59.857Z,39.50
2023-05-18T05:57:49.895Z,44.27
2023-05-18T05:58:39.984Z,46.43
2023-05-18T05:59:30.037Z,45.36
2023-05-18T06:00:20.073Z,44.34
2023-05-18T06:01:10.160Z,42.68
2023-05-18T06:02:00.221Z,39.75
2023-05-18T06:02:50.298Z,44.13
2023-05-18T06:03:40.397Z,44.71
2023-05-18T06:04:30.432Z,46.82
2023-05-18T06:05:20.425Z,46.23
2023-05-18T06:06:10.472Z,47.49
2023-05-18T06:07:00.538Z,43.44
2023-05-18T06:07:50.598Z,41.98
2023-05-18T06:08:40.666Z,38.95
2023-05-18T06:09:30.754Z,44.51
2023-05-18T06:10:20.778Z,45.36
2023-05-18T06:11:11.636Z,42.11
2023-05-18T06:12:00.906Z,49.15
2023-05-18T06:12:50.969Z,43.26
2023-05-18T06:13:41.030Z,44.08
2023-05-18T06:14:31.113Z,40.88
2023-05-18T06:15:21.210Z,42.63
2023-05-18T06:16:11.209Z,41.76
2023-05-18T06:17:01.455Z,43.19
2023-05-18T06:17:51.392Z,46.95
2023-05-18T06:18:41.460Z,43.39
2023-05-18T06:19:31.464Z,45.84
2023-05-18T06:20:21.556Z,50.62
2023-05-18T06:21:11.530Z,49.88
2023-05-18T06:22:01.702Z,49.70
2023-05-18T06:22:51.636Z,47.93
2023-05-18T06:23:42.154Z,42.30
2023-05-18T06:24:31.777Z,40.11
2023-05-18T06:25:21.897Z,42.27
2023-05-18T06:26:11.868Z,45.68
2023-05-18T06:27:01.941Z,47.96
2023-05-18T06:27:52.014Z,46.54
2023-05-18T06:28:42.119Z,45.78
2023-05-18T06:29:32.131Z,38.57
2023-05-18T06:30:22.242Z,41.63
2023-05-18T06:31:12.222Z,47.17
2023-05-18T06:32:02.432Z,42.21
2023-05-18T06:32:52.376Z,42.56
2023-05-18T06:33:42.457Z,46.71
2023-05-18T06:34:32.476Z,43.19
2023-05-18T06:35:22.597Z,46.93
2023-05-18T06:36:12.600Z,46.00
2023-05-18T06:37:03.868Z,46.77
2023-05-18T06:37:52.714Z,47.28
2023-05-18T06:38:42.780Z,46.98
2023-05-18T06:39:32.824Z,49.17
2023-05-18T06:40:22.935Z,50.93
2023-05-18T06:41:12.911Z,50.15
2023-05-18T06:42:03.079Z,45.40
2023-05-18T06:42:53.036Z,46.76
2023-05-18T06:43:43.122Z,46.46
2023-05-18T06:44:33.181Z,44.25
2023-05-18T06:45:23.175Z,48.11
2023-05-18T06:46:13.216Z,47.46
2023-05-18T06:47:03.430Z,51.24
2023-05-18T06:47:53.342Z,50.31
2023-05-18T06:48:43.490Z,53.63
2023-05-18T06:49:33.480Z,53.44
2023-05-18T06:50:23.531Z,51.93
2023-05-18T06:51:13.556Z,48.61
2023-05-18T06:52:03.666Z,49.21
2023-05-18T06:52:53.649Z,52.24
2023-05-18T06:53:43.815Z,49.23
2023-05-18T06:54:33.760Z,50.22
2023-05-18T06:55:23.859Z,53.89
2023-05-18T06:56:13.843Z,51.00
2023-05-18T06:57:04.010Z,49.89
2023-05-18T06:57:53.952Z,53.92
2023-05-18T06:58:44.058Z,55.82
2023-05-18T06:59:34.090Z,56.83
2023-05-18T07:00:24.199Z,55.68
2023-05-18T07:01:14.243Z,52.26
2023-05-18T07:02:04.482Z,59.86
2023-05-18T07:02:55.420Z,60.67
2023-05-18T07:03:44.484Z,60.85
2023-05-18T07:04:34.410Z,61.34
2023-05-18T07:05:24.558Z,56.88
2023-05-18T07:06:14.489Z,61.70
2023-05-18T07:07:04.592Z,61.09
2023-05-18T07:07:54.644Z,51.22
2023-05-18T07:08:44.740Z,53.37
2023-05-18T07:09:34.733Z,53.87
2023-05-18T07:10:24.787Z,60.84
2023-05-18T07:11:15.446Z,57.22
2023-05-18T07:12:04.948Z,54.37
2023-05-18T07:12:54.954Z,53.26
2023-05-18T07:13:45.206Z,56.24
2023-05-18T07:14:35.064Z,55.33
2023-05-18T07:15:25.127Z,57.85
2023-05-18T07:16:15.186Z,56.30
2023-05-18T07:17:05.280Z,55.16
2023-05-18T07:17:55.294Z,55.29
2023-05-18T07:18:45.434Z,61.60
2023-05-18T07:19:35.384Z,66.60
2023-05-18T07:20:26.333Z,66.17
2023-05-18T07:21:15.448Z,60.22
2023-05-18T07:22:05.523Z,59.95
2023-05-18T07:22:55.578Z,59.95
2023-05-18T07:23:46.696Z,58.75
2023-05-18T07:24:35.695Z,49.89
2023-05-18T07:25:25.814Z,46.51
2023-05-18T07:26:15.752Z,46.93
2023-05-18T07:27:06.890Z,53.70
2023-05-18T07:27:55.878Z,54.27
2023-05-18T07:28:46.024Z,51.48
2023-05-18T07:29:36.034Z,49.09
2023-05-18T07:30:26.079Z,47.36
2023-05-18T07:31:16.083Z,49.16
2023-05-18T07:32:06.208Z,59.46
2023-05-18T07:32:56.190Z,62.11
2023-05-18T07:33:46.356Z,52.59
2023-05-18T07:34:36.322Z,54.92
2023-05-18T07:35:26.410Z,55.62
2023-05-18T07:36:16.404Z,55.75
2023-05-18T07:37:06.550Z,60.04
2023-05-18T07:37:56.521Z,50.43
2023-05-18T07:38:46.599Z,51.33
2023-05-18T07:39:36.634Z,48.93
2023-05-18T07:40:26.756Z,49.35
2023-05-18T07:41:16.721Z,52.62
2023-05-18T07:42:06.899Z,52.00
2023-05-18T07:42:56.830Z,49.53
2023-05-18T07:43:46.937Z,52.47
2023-05-18T07:44:36.979Z,53.05
2023-05-18T07:45:27.086Z,54.71
2023-05-18T07:46:17.096Z,52.96
2023-05-18T07:47:07.369Z,53.69
2023-05-18T07:47:57.227Z,45.72
2023-05-18T07:48:47.278Z,54.12
2023-05-18T07:49:37.271Z,54.25
2023-05-18T07:50:27.428Z,55.81
2023-05-18T07:51:17.428Z,58.82
2023-05-18T07:52:07.602Z,53.25
2023-05-18T07:52:57.521Z,52.90
2023-05-18T07:53:47.622Z,56.86
2023-05-18T07:54:37.667Z,62.19
2023-05-18T07:55:27.793Z,55.36
2023-05-18T07:56:17.748Z,55.60
2023-05-18T07:57:07.822Z,57.97
2023-05-18T07:57:57.835Z,51.66
2023-05-18T07:58:47.972Z,54.61
2023-05-18T07:59:37.955Z,54.19
2023-05-18T08:00:28.115Z,57.26
2023-05-18T08:01:18.051Z,56.49
2023-05-18T08:02:08.281Z,56.66
2023-05-18T08:02:58.351Z,61.55
2023-05-18T08:03:48.380Z,63.41
2023-05-18T08:04:38.326Z,62.96
2023-05-18T08:05:28.654Z,60.73
2023-05-18T08:06:18.384Z,59.88
2023-05-18T08:07:08.505Z,57.79
2023-05-18T08:07:58.517Z,68.63
2023-05-18T08:08:48.653Z,72.80
2023-05-18T08:09:38.607Z,71.84
2023-05-18T08:10:28.705Z,67.30
2023-05-18T08:11:18.723Z,62.57
2023-05-18T08:12:08.852Z,62.69
2023-05-18T08:12:58.838Z,58.34
2023-05-18T08:13:49.010Z,54.24
2023-05-18T08:14:38.948Z,49.56
2023-05-18T08:15:29.272Z,49.63
2023-05-18T08:16:19.086Z,60.65
2023-05-18T08:17:09.120Z,66.11
2023-05-18T08:17:59.268Z,63.32
2023-05-18T08:18:49.263Z,53.48
2023-05-18T08:19:41.712Z,64.88
2023-05-18T08:20:29.280Z,64.89
2023-05-18T08:21:19.332Z,62.52
2023-05-18T08:22:09.428Z,55.23
2023-05-18T08:22:59.449Z,53.25
2023-05-18T08:23:49.623Z,57.32
2023-05-18T08:24:39.575Z,53.82
2023-05-18T08:25:29.853Z,53.92
2023-05-18T08:26:19.640Z,56.74
2023-05-18T08:27:09.778Z,56.40
2023-05-18T08:27:59.749Z,60.97
2023-05-18T08:28:49.921Z,60.80
2023-05-18T08:29:39.881Z,65.40
2023-05-18T08:30:29.973Z,63.49
2023-05-18T08:31:20.034Z,63.84
2023-05-18T08:32:10.164Z,63.65
2023-05-18T08:33:00.186Z,66.99
2023-05-18T08:33:50.265Z,67.86
2023-05-18T08:34:40.248Z,65.22
2023-05-18T08:35:30.744Z,68.32
2023-05-18T08:36:20.361Z,66.87
2023-05-18T08:37:10.453Z,66.73
2023-05-18T08:38:00.476Z,67.74
2023-05-18T08:38:50.604Z,73.42
2023-05-18T08:39:40.619Z,64.08
2023-05-18T08:40:30.760Z,67.33
2023-05-18T08:41:20.685Z,68.99
2023-05-18T08:42:10.829Z,66.29
2023-05-18T08:43:00.806Z,68.73
2023-05-18T08:43:50.964Z,60.71
2023-05-18T08:44:40.939Z,69.32
2023-05-18T08:45:31.342Z,70.66
2023-05-18T08:46:21.065Z,67.08
2023-05-18T08:47:11.141Z,71.78
2023-05-18T08:48:01.307Z,63.31
2023-05-18T08:48:51.347Z,72.44
2023-05-18T08:49:41.252Z,64.16
2023-05-18T08:50:31.593Z,70.79
2023-05-18T08:51:22.001Z,67.96
2023-05-18T08:52:11.489Z,73.94
2023-05-18T08:53:01.528Z,68.31
2023-05-18T08:53:51.639Z,67.43
2023-05-18T08:54:41.622Z,69.34
2023-05-18T08:55:31.986Z,60.41
2023-05-18T08:56:21.769Z,64.76
2023-05-18T08:57:11.827Z,65.56
2023-05-18T08:58:01.856Z,62.20
2023-05-18T08:58:51.976Z,67.72
2023-05-18T08:59:41.959Z,71.93
2023-05-18T09:00:32.326Z,64.61
2023-05-18T09:01:22.171Z,64.26
2023-05-18T09:02:12.167Z,63.16
2023-05-18T09:03:02.317Z,58.09
2023-05-18T09:03:52.221Z,63.70
2023-05-18T09:04:42.325Z,62.99
2023-05-18T09:05:32.715Z,63.19
2023-05-18T09:06:24.120Z,60.63
2023-05-18T09:07:12.424Z,58.11
2023-05-18T09:08:02.600Z,64.82
2023-05-18T09:08:52.520Z,68.78
2023-05-18T09:09:42.635Z,69.23
2023-05-18T09:10:32.668Z,72.13
2023-05-18T09:11:22.845Z,71.30
2023-05-18T09:12:12.749Z,70.83
2023-05-18T09:13:02.833Z,66.65
2023-05-18T09:13:52.864Z,66.21
2023-05-18T09:14:42.981Z,76.53
2023-05-18T09:15:33.185Z,66.94
2023-05-18T09:16:23.146Z,69.26
2023-05-18T09:17:13.091Z,70.97
2023-05-18T09:18:03.196Z,74.20
2023-05-18T09:18:53.239Z,68.49
2023-05-18T09:19:43.326Z,71.19
2023-05-18T09:20:33.353Z,71.53
2023-05-18T09:21:23.425Z,72.17
2023-05-18T09:22:13.452Z,69.00
2023-05-18T09:23:03.516Z,71.90
2023-05-18T09:23:53.577Z,76.67
2023-05-18T09:24:43.664Z,73.77
2023-05-18T09:25:33.689Z,77.96
2023-05-18T09:26:23.844Z,73.29
2023-05-18T09:27:13.864Z,72.24
2023-05-18T09:28:03.969Z,69.43
2023-05-18T09:28:53.947Z,75.63
2023-05-18T09:29:44.005Z,71.86
2023-05-18T09:30:34.076Z,66.55
2023-05-18T09:31:24.224Z,73.16
2023-05-18T09:32:14.199Z,78.09
2023-05-18T09:33:04.402Z,68.65
2023-05-18T09:33:54.350Z,67.05
2023-05-18T09:34:44.353Z,66.58
2023-05-18T09:35:34.947Z,66.40
2023-05-18T09:36:24.517Z,66.10
2023-05-18T09:37:14.523Z,69.75
2023-05-18T09:38:04.648Z,67.25
2023-05-18T09:38:54.652Z,72.16
2023-05-18T09:39:44.738Z,72.14
2023-05-18T09:40:34.724Z,68.91
2023-05-18T09:41:24.842Z,68.35
2023-05-18T09:42:14.870Z,66.77
2023-05-18T09:43:05.019Z,70.29
2023-05-18T09:43:54.994Z,75.42
2023-05-18T09:44:45.037Z,72.69
2023-05-18T09:45:35.066Z,70.13
2023-05-18T09:46:25.291Z,74.12
2023-05-18T09:47:15.199Z,75.41
2023-05-18T09:48:05.347Z,69.44
2023-05-18T09:48:55.324Z,70.71
2023-05-18T09:49:45.384Z,67.01
2023-05-18T09:50:35.402Z,66.53
2023-05-18T09:51:25.902Z,63.58
2023-05-18T09:52:15.522Z,67.40
2023-05-18T09:53:05.681Z,67.40
2023-05-18T09:53:55.630Z,62.79
2023-05-18T09:54:45.729Z,68.74
2023-05-18T09:55:35.722Z,64.45
2023-05-18T09:56:25.894Z,62.99
2023-05-18T09:57:15.853Z,64.93
2023-05-18T09:58:06.049Z,61.11
2023-05-18T09:58:56.040Z,60.28
2023-05-18T09:59:46.072Z,60.42
2023-05-18T10:00:36.094Z,58.45
2023-05-18T10:01:26.177Z,62.89
2023-05-18T10:02:16.141Z,60.30
2023-05-18T10:03:06.280Z,56.90
2023-05-18T10:03:56.342Z,60.45
2023-05-18T10:04:46.386Z,58.22
2023-05-18T10:05:36.670Z,58.49
2023-05-18T10:06:26.465Z,62.72
2023-05-18T10:07:16.466Z,52.83
2023-05-18T10:08:06.620Z,58.50
2023-05-18T10:08:56.558Z,58.66
2023-05-18T10:09:46.668Z,56.00
2023-05-18T10:10:36.642Z,54.82
2023-05-18T10:11:26.804Z,60.22
2023-05-18T10:12:16.735Z,55.86
2023-05-18T10:13:06.848Z,63.25
2023-05-18T10:13:56.889Z,59.90
2023-05-18T10:14:47.027Z,54.95
2023-05-18T10:15:36.971Z,52.24
2023-05-18T10:16:27.188Z,56.14
2023-05-18T10:17:17.635Z,53.46
2023-05-18T10:18:07.229Z,55.47
2023-05-18T10:18:57.253Z,56.69
2023-05-18T10:19:47.340Z,51.45
2023-05-18T10:20:37.363Z,55.03
2023-05-18T10:21:27.488Z,55.13
2023-05-18T10:22:17.469Z,57.70
2023-05-18T10:23:07.642Z,61.78
2023-05-18T10:23:57.608Z,61.35
2023-05-18T10:24:47.684Z,64.21
2023-05-18T10:25:37.708Z,62.32
2023-05-18T10:26:27.829Z,64.55
2023-05-18T10:27:17.818Z,65.88
2023-05-18T10:28:08.000Z,66.67
2023-05-18T10:28:57.938Z,66.96
2023-05-18T10:29:48.037Z,66.79
2023-05-18T10:30:38.071Z,65.89
2023-05-18T10:31:28.166Z,69.50
2023-05-18T10:32:18.143Z,75.83
2023-05-18T10:33:20.755Z,70.28
2023-05-18T10:33:59.350Z,70.38
2023-05-18T10:34:48.307Z,70.64
2023-05-18T10:35:38.458Z,71.22
2023-05-18T10:36:28.383Z,73.88
2023-05-18T10:37:18.490Z,74.12
2023-05-18T10:38:08.527Z,75.78
2023-05-18T10:38:58.648Z,71.67
2023-05-18T10:39:48.616Z,76.83
2023-05-18T10:40:38.797Z,76.57
2023-05-18T10:41:28.724Z,79.49
2023-05-18T10:42:18.856Z,80.26
2023-05-18T10:43:08.863Z,81.26
2023-05-18T10:43:58.988Z,80.16
2023-05-18T10:44:48.965Z,82.90